»·PEaware :: AAL1637 KMIA-KMCO

AAL1637 :: KMIA-KMCO

FLIGHT INFORMATION

Flight Status: Arrived
Operator:
American Airlines
More flights by this operator :: More flights under this callsign
Pilot: Drew L. (13237)
Aircraft: BOEING 767-300
(B763)
More flights by this aircraft type
Origin: KMIA Miami Intl
United States
Destination: KMCO Orlando Intl
United States
More flights between these airports :: More routes between these airports
Route: HEDLY2 HEDLY J53 PHK BAIRN4
File this flight plan on PilotEdge
Remarks: PBN / A1B1C1D1L1O1 DOF / 180311 REG / N619SB EET / KZJX0034 OPR / AAL PER / D RMK / TCAS SIMBRIEF
Altitude:
(Current/Filed)
20,000ft
Speed:
(Current/Filed)
467kts
Departed: 11-Mar-18 01:58 AM
Arrived: 11-Mar-18 03:35 AM
Distance/Time
Traveled:
167nm/0:36
Distance/Time
To Go:
Arrived

Flight Plot

Page will automatically refresh every two minutes.

Flight plan parsing failed; only flown route is shown


Map Options




Map Legend


Flown Route
Filed Route
Departure Airport
Arrival Airport
Navaid (VOR, NDB)
Fix

Horizontal Profiles

Position Reports

Time Latitude Longitude Heading Altitude Ground
Speed
11-Mar-18 01:43 25.798254 -80.284122 177 17ft 0kts
11-Mar-18 01:44 25.798254 -80.284122 177 17ft 0kts
11-Mar-18 01:45 25.798254 -80.284122 177 17ft 0kts
11-Mar-18 01:46 25.798254 -80.284122 177 17ft 0kts
11-Mar-18 01:47 25.798254 -80.284122 177 17ft 0kts
11-Mar-18 01:48 25.798254 -80.284122 177 17ft 0kts
11-Mar-18 01:49 25.798254 -80.284122 177 17ft 0kts
11-Mar-18 01:50 25.798372 -80.284126 179 17ft 2kts
11-Mar-18 01:51 25.798964 -80.284143 182 17ft 2kts
11-Mar-18 01:52 25.799448 -80.283809 242 17ft 2kts
11-Mar-18 01:53 25.799524 -80.283495 267 17ft 0kts
11-Mar-18 01:54 25.799474 -80.284821 267 17ft 17kts
11-Mar-18 01:55 25.799145 -80.292646 267 17ft 32kts
11-Mar-18 01:56 25.799747 -80.299526 286 17ft 3kts
11-Mar-18 01:57 25.800816 -80.298510 87 17ft 64kts
11-Mar-18 01:58 25.803224 -80.248974 86 2099ft 214kts
11-Mar-18 01:59 25.811235 -80.175007 65 5683ft 265kts
11-Mar-18 03:00 25.879988 -80.161507 336 9177ft 292kts
11-Mar-18 03:01 25.958622 -80.199827 325 11405ft 356kts
11-Mar-18 03:02 26.042912 -80.265300 316 14780ft 382kts
11-Mar-18 03:03 26.125183 -80.337700 315 18100ft 400kts
11-Mar-18 03:04 26.216063 -80.417231 319 19498ft 441kts
11-Mar-18 03:05 26.329584 -80.476356 331 20009ft 452kts
11-Mar-18 03:06 26.443662 -80.530735 331 20006ft 446kts
11-Mar-18 03:07 26.558638 -80.585536 331 20009ft 445kts
11-Mar-18 03:08 26.673072 -80.639634 331 20019ft 446kts
11-Mar-18 03:09 26.786970 -80.692618 335 20029ft 448kts
11-Mar-18 03:10 26.902729 -80.734603 336 20026ft 448kts
11-Mar-18 03:11 27.020062 -80.776967 336 20027ft 448kts
11-Mar-18 03:12 27.136691 -80.819147 336 20021ft 447kts
11-Mar-18 03:13 27.254045 -80.861706 337 20009ft 440kts
11-Mar-18 03:14 27.347406 -80.895589 337 20014ft 441kts
11-Mar-18 03:15 27.463005 -80.937648 337 20014ft 440kts
11-Mar-18 03:16 27.577183 -80.979284 337 20013ft 439kts
11-Mar-18 03:17 27.692279 -81.021335 338 18812ft 426kts
11-Mar-18 03:18 27.801764 -81.061434 338 17370ft 405kts
11-Mar-18 03:19 27.906596 -81.099916 338 15934ft 388kts
11-Mar-18 03:20 28.007459 -81.134999 340 14514ft 375kts
11-Mar-18 03:21 28.104642 -81.167484 340 12958ft 370kts
11-Mar-18 03:22 28.203633 -81.187237 357 11189ft 371kts
11-Mar-18 03:23 28.305554 -81.187478 358 10017ft 353kts
11-Mar-18 03:24 28.388195 -81.187443 357 9850ft 247kts
11-Mar-18 03:25 28.452431 -81.187476 357 8785ft 214kts
11-Mar-18 03:26 28.511461 -81.187510 359 7627ft 212kts
11-Mar-18 03:27 28.570249 -81.187517 0 6463ft 210kts
11-Mar-18 03:28 28.603057 -81.224408 243 5227ft 199kts
11-Mar-18 03:29 28.577077 -81.276479 238 3968ft 181kts
11-Mar-18 03:30 28.548372 -81.321377 209 2455ft 171kts
11-Mar-18 03:31 28.506206 -81.327932 179 1452ft 147kts
11-Mar-18 03:32 28.466255 -81.322475 179 547ft 144kts
11-Mar-18 03:33 28.430025 -81.322132 178 107ft 67kts
11-Mar-18 03:34 28.427118 -81.316315 84 107ft 12kts
11-Mar-18 03:35 28.427634 -81.315090 55 107ft 0kts
11-Mar-18 03:36 28.427634 -81.315090 55 107ft 0kts

Navigation Log

Ident Type
Flight plan parsing failed, navigation log unavailable